Time;durP1;ratioP1;P1;durP2;ratioP2;P2;SDS_P1;SDS_P2;PMS_P1;PMS_P2;Temp;Humidity;BMP_temperature;BMP_pressure;BME280_temperature;BME280_humidity;BME280_pressure;Samples;Min_cycle;Max_cycle;Signal;HPM_P1;HPM_P2
2023/06/16 00:00:35;;;;;;;13.90;6.90;;;;;;;-140.66;100.00;55571.53;5133896;27;20091;-73
2023/06/16 00:03:21;;;;;;;9.45;6.85;;;;;;;-140.66;100.00;55571.53;5133917;27;20038;-73
2023/06/16 00:06:13;;;;;;;11.65;7.07;;;;;;;-140.66;100.00;55571.53;5118965;27;20027;-74
2023/06/16 00:09:00;;;;;;;10.20;7.15;;;;;;;-140.66;100.00;55571.53;5119005;27;20058;-74
2023/06/16 00:11:46;;;;;;;10.82;6.85;;;;;;;-140.66;100.00;55571.53;5134433;27;20027;-73
2023/06/16 00:14:32;;;;;;;10.25;7.10;;;;;;;-140.66;100.00;55571.53;5134456;27;20051;-74
2023/06/16 00:17:23;;;;;;;9.52;7.05;;;;;;;-140.66;100.00;55571.53;5119196;27;20059;-76
2023/06/16 00:20:10;;;;;;;9.38;7.35;;;;;;;-140.66;100.00;55571.53;5134400;27;20051;-73
2023/06/16 00:22:57;;;;;;;8.93;6.70;;;;;;;-140.66;100.00;55571.53;5135093;28;20031;-74
2023/06/16 00:25:42;;;;;;;9.75;6.53;;;;;;;-140.66;100.00;55571.53;5133895;28;20027;-74
2023/06/16 00:28:28;;;;;;;10.18;6.45;;;;;;;-140.66;100.00;55571.53;5134598;28;20092;-75
2023/06/16 00:31:15;;;;;;;8.00;7.13;;;;;;;-140.66;100.00;55571.53;5133985;28;20027;-73
2023/06/16 00:34:01;;;;;;;7.85;6.45;;;;;;;-140.66;100.00;55571.53;5134210;28;20046;-74
2023/06/16 00:36:47;;;;;;;11.32;6.93;;;;;;;-140.66;100.00;55571.53;5133689;28;20041;-74
2023/06/16 00:39:33;;;;;;;10.43;6.85;;;;;;;-140.66;100.00;55571.53;5117581;28;20038;-74
2023/06/16 00:42:19;;;;;;;15.98;7.13;;;;;;;-140.66;100.00;55571.53;5149814;28;20090;-74
2023/06/16 00:45:05;;;;;;;8.23;6.75;;;;;;;-140.66;100.00;55571.53;5150444;28;20035;-75
2023/06/16 00:47:51;;;;;;;9.57;6.30;;;;;;;-140.66;100.00;55571.53;5134139;28;20118;-74
2023/06/16 00:50:37;;;;;;;11.15;6.20;;;;;;;-140.66;100.00;55571.53;5119163;28;20034;-75
2023/06/16 00:53:25;;;;;;;9.15;6.28;;;;;;;-140.66;100.00;55571.53;5133464;28;20356;-74
2023/06/16 00:56:11;;;;;;;9.05;6.25;;;;;;;-140.66;100.00;55571.53;5134597;28;20360;-74
2023/06/16 00:58:57;;;;;;;8.50;6.00;;;;;;;-140.66;100.00;55571.53;5119015;28;20448;-74
2023/06/16 01:01:43;;;;;;;11.05;6.07;;;;;;;-140.66;100.00;55571.53;5145122;28;20015;-72
2023/06/16 01:04:29;;;;;;;6.30;5.70;;;;;;;-140.66;100.00;55571.53;5138009;28;20032;-74
2023/06/16 01:07:28;;;;;;;6.90;5.70;;;;;;;-140.66;100.00;55571.53;5134793;28;20429;-74
2023/06/16 01:10:35;;;;;;;6.43;5.63;;;;;;;-140.66;100.00;55571.53;5133804;28;20031;-74
2023/06/16 01:13:29;;;;;;;9.27;5.70;;;;;;;-140.66;100.00;55571.53;5134185;28;20448;-74
2023/06/16 01:16:21;;;;;;;7.13;5.80;;;;;;;-140.66;100.00;55571.53;5118443;28;20031;-74
2023/06/16 01:19:19;;;;;;;7.80;5.68;;;;;;;-140.66;100.00;55571.53;5133883;27;20113;-73
2023/06/16 01:22:07;;;;;;;6.63;5.28;;;;;;;-140.66;100.00;55571.53;5138099;27;20030;-74
2023/06/16 01:24:57;;;;;;;7.95;5.72;;;;;;;-140.66;100.00;55571.53;5138854;27;20055;-73
2023/06/16 01:27:47;;;;;;;6.60;5.43;;;;;;;-140.66;100.00;55571.53;5138478;27;20349;-74
2023/06/16 01:30:34;;;;;;;12.73;5.93;;;;;;;-140.66;100.00;55571.53;5137294;27;20368;-73
2023/06/16 01:33:23;;;;;;;9.75;5.72;;;;;;;-140.66;100.00;55571.53;5122761;27;20159;-73
2023/06/16 01:36:09;;;;;;;7.05;5.45;;;;;;;-140.66;100.00;55571.53;5137126;27;20015;-74
2023/06/16 01:38:56;;;;;;;7.15;5.55;;;;;;;-140.66;100.00;55571.53;5136609;27;20089;-74
2023/06/16 01:41:42;;;;;;;6.95;5.60;;;;;;;-140.66;100.00;55571.53;5138494;27;20031;-75
2023/06/16 01:44:29;;;;;;;10.90;5.45;;;;;;;-140.66;100.00;55571.53;5137852;27;20027;-77
2023/06/16 01:47:14;;;;;;;7.80;5.45;;;;;;;-140.66;100.00;55571.53;5136638;27;20019;-74
2023/06/16 01:50:01;;;;;;;8.93;5.70;;;;;;;-140.66;100.00;55571.53;5136979;27;20027;-73
2023/06/16 01:52:46;;;;;;;6.32;5.20;;;;;;;-140.66;100.00;55571.53;5136560;27;20492;-74
2023/06/16 01:55:32;;;;;;;7.57;5.97;;;;;;;-140.66;100.00;55571.53;5137211;27;20356;-74
2023/06/16 01:58:22;;;;;;;8.45;5.60;;;;;;;-140.66;100.00;55571.53;5136699;27;20023;-74
2023/06/16 02:01:09;;;;;;;6.80;5.88;;;;;;;-140.66;100.00;55571.53;5137325;27;20520;-74
2023/06/16 02:04:11;;;;;;;8.07;6.20;;;;;;;-140.66;100.00;55571.53;5136944;27;20098;-74
2023/06/16 02:07:07;;;;;;;8.73;6.15;;;;;;;-140.66;100.00;55571.53;5136776;27;20019;-73
2023/06/16 02:09:54;;;;;;;6.78;5.85;;;;;;;-140.66;100.00;55571.53;5136772;27;20062;-74
2023/06/16 02:12:40;;;;;;;6.63;5.75;;;;;;;-140.66;100.00;55571.53;5123087;27;20023;-74
2023/06/16 02:15:27;;;;;;;11.07;5.88;;;;;;;-140.66;100.00;55571.53;5121032;27;20019;-74
2023/06/16 02:18:13;;;;;;;6.63;5.93;;;;;;;-140.66;100.00;55571.53;5136553;27;20114;-74
2023/06/16 02:20:59;;;;;;;9.05;6.00;;;;;;;-140.66;100.00;55571.53;5120803;27;20043;-73
2023/06/16 02:23:44;;;;;;;7.63;6.10;;;;;;;-140.66;100.00;55571.53;5121515;27;20034;-73
2023/06/16 02:26:32;;;;;;;8.70;5.97;;;;;;;-140.66;100.00;55571.53;5121899;27;20054;-73
2023/06/16 02:29:18;;;;;;;10.07;6.38;;;;;;;-140.66;100.00;55571.53;5136590;27;20045;-74
2023/06/16 02:32:04;;;;;;;11.18;6.13;;;;;;;-140.66;100.00;55571.53;5136127;27;20023;-74
2023/06/16 02:34:52;;;;;;;7.22;5.57;;;;;;;-140.66;100.00;55571.53;5120958;27;20114;-74
2023/06/16 02:37:38;;;;;;;6.50;5.63;;;;;;;-140.66;100.00;55571.53;5135732;27;20038;-73
2023/06/16 02:40:24;;;;;;;9.57;6.30;;;;;;;-140.66;100.00;55571.53;5135558;27;20103;-75
2023/06/16 02:43:10;;;;;;;8.77;5.97;;;;;;;-140.66;100.00;55571.53;5137123;27;20027;-74
2023/06/16 02:45:55;;;;;;;9.60;6.50;;;;;;;-140.66;100.00;55571.53;5134645;27;20061;-75
2023/06/16 02:48:41;;;;;;;11.77;6.30;;;;;;;-140.66;100.00;55571.53;5136805;27;20027;-75
2023/06/16 02:51:27;;;;;;;7.78;6.10;;;;;;;-140.66;100.00;55571.53;5135638;27;20445;-74
2023/06/16 02:54:13;;;;;;;12.40;6.55;;;;;;;-140.66;100.00;55571.53;5135898;27;20117;-74
2023/06/16 02:56:58;;;;;;;7.35;6.05;;;;;;;-140.66;100.00;55571.53;5135730;27;20065;-74
2023/06/16 02:59:45;;;;;;;7.68;5.68;;;;;;;-140.66;100.00;55571.53;5135702;27;20027;-74
2023/06/16 03:02:30;;;;;;;8.55;6.25;;;;;;;-140.66;100.00;55571.53;5136038;27;20068;-74
2023/06/16 03:05:18;;;;;;;9.60;6.10;;;;;;;-140.66;100.00;55571.53;5135940;27;20041;-74
2023/06/16 03:08:04;;;;;;;10.68;6.15;;;;;;;-140.66;100.00;55571.53;5135985;27;20027;-74
2023/06/16 03:10:51;;;;;;;9.23;6.22;;;;;;;-140.66;100.00;55571.53;5136023;27;20031;-74
2023/06/16 03:13:37;;;;;;;8.95;6.35;;;;;;;-140.66;100.00;55571.53;5154136;27;20074;-74
2023/06/16 03:16:27;;;;;;;9.98;6.05;;;;;;;-140.66;100.00;55571.53;5140420;27;20030;-74
2023/06/16 03:19:13;;;;;;;7.13;5.97;;;;;;;-140.66;100.00;55571.53;5136008;27;20047;-74
2023/06/16 03:22:00;;;;;;;7.50;6.20;;;;;;;-140.66;100.00;55571.53;5120441;27;20038;-75
2023/06/16 03:24:46;;;;;;;8.70;6.68;;;;;;;-140.66;100.00;55571.53;5135613;27;20062;-74
2023/06/16 03:27:31;;;;;;;9.10;6.90;;;;;;;-140.66;100.00;55571.53;5120279;27;20037;-74
2023/06/16 03:30:17;;;;;;;10.73;7.28;;;;;;;-140.66;100.00;55571.53;5121318;27;20027;-73
2023/06/16 03:33:03;;;;;;;9.55;6.97;;;;;;;-140.66;100.00;55571.53;5157272;27;20103;-74
2023/06/16 03:35:49;;;;;;;10.95;7.20;;;;;;;-140.66;100.00;55571.53;5120294;27;20027;-77
2023/06/16 03:38:35;;;;;;;8.57;6.68;;;;;;;-140.66;100.00;55571.53;5134562;27;20055;-77
2023/06/16 03:41:20;;;;;;;10.45;6.88;;;;;;;-140.66;100.00;55571.53;5134722;27;20027;-74
2023/06/16 03:44:06;;;;;;;11.95;7.78;;;;;;;-140.66;100.00;55571.53;5135223;27;20066;-74
2023/06/16 03:46:52;;;;;;;11.63;7.43;;;;;;;-140.66;100.00;55571.53;5135263;27;20022;-75
2023/06/16 03:49:37;;;;;;;10.98;7.75;;;;;;;-140.66;100.00;55571.53;5135537;27;20088;-74
2023/06/16 03:52:23;;;;;;;15.50;7.97;;;;;;;-140.66;100.00;55571.53;5134868;27;20023;-74
2023/06/16 03:55:09;;;;;;;11.80;7.70;;;;;;;-140.66;100.00;55571.53;5134723;27;20088;-74
2023/06/16 03:57:55;;;;;;;14.90;7.93;;;;;;;-140.66;100.00;55571.53;5133943;27;20334;-74
2023/06/16 04:00:44;;;;;;;15.05;7.82;;;;;;;-140.66;100.00;55571.53;5133844;27;20023;-74
2023/06/16 04:03:30;;;;;;;13.57;8.00;;;;;;;-140.66;100.00;55571.53;5120647;27;20027;-74
2023/06/16 04:06:16;;;;;;;12.00;8.25;;;;;;;-140.66;100.00;55571.53;5134772;27;20476;-73
2023/06/16 04:09:02;;;;;;;13.60;8.40;;;;;;;-140.66;100.00;55571.53;5134858;27;20031;-75
2023/06/16 04:11:48;;;;;;;15.27;9.48;;;;;;;-140.66;100.00;55571.53;5135203;27;20066;-75
2023/06/16 04:14:34;;;;;;;14.02;8.60;;;;;;;-140.66;100.00;55571.53;5134492;27;20418;-74
2023/06/16 04:17:20;;;;;;;14.27;7.95;;;;;;;-140.66;100.00;55571.53;5134340;28;20038;-74
2023/06/16 04:20:10;;;;;;;15.60;9.10;;;;;;;-140.66;100.00;55571.53;5105759;28;20043;-74
2023/06/16 04:22:55;;;;;;;15.00;8.45;;;;;;;-140.66;100.00;55571.53;5134518;27;20026;-75
2023/06/16 04:25:41;;;;;;;22.20;8.85;;;;;;;-140.66;100.00;55571.53;5119904;28;20019;-74
2023/06/16 04:28:27;;;;;;;18.90;8.48;;;;;;;-140.66;100.00;55571.53;5119717;28;20123;-74
2023/06/16 04:31:13;;;;;;;23.90;9.38;;;;;;;-140.66;100.00;55571.53;5134191;28;20158;-74
2023/06/16 04:33:58;;;;;;;17.45;8.73;;;;;;;-140.66;100.00;55571.53;5135192;28;20023;-74
2023/06/16 04:36:44;;;;;;;19.00;9.18;;;;;;;-140.66;100.00;55571.53;5133918;28;20023;-73
2023/06/16 04:39:30;;;;;;;23.05;9.60;;;;;;;-140.66;100.00;55571.53;5133780;28;20035;-74
2023/06/16 04:42:16;;;;;;;22.70;9.38;;;;;;;-140.66;100.00;55571.53;5133852;28;20510;-74
2023/06/16 04:45:01;;;;;;;28.05;10.32;;;;;;;-140.66;100.00;55571.53;5133743;28;20403;-74
2023/06/16 04:47:50;;;;;;;18.98;9.27;;;;;;;-140.66;100.00;55571.53;5134068;28;20107;-74
2023/06/16 04:50:36;;;;;;;16.58;9.48;;;;;;;-140.66;100.00;55571.53;5119255;28;20026;-76
2023/06/16 04:53:21;;;;;;;25.40;9.65;;;;;;;-140.66;100.00;55571.53;5119461;28;20027;-74
2023/06/16 04:56:07;;;;;;;16.75;9.30;;;;;;;-140.66;100.00;55571.53;5138149;27;20383;-74
2023/06/16 04:58:53;;;;;;;20.92;9.68;;;;;;;-140.66;100.00;55571.53;5139065;27;20046;-74
2023/06/16 05:01:39;;;;;;;17.17;8.30;;;;;;;-140.66;100.00;55571.53;5137595;27;20459;-74
2023/06/16 05:04:25;;;;;;;14.75;8.88;;;;;;;-140.66;100.00;55571.53;5137752;27;20033;-73
2023/06/16 05:07:11;;;;;;;14.68;9.25;;;;;;;-140.66;100.00;55571.53;5138422;27;20111;-75
2023/06/16 05:09:57;;;;;;;20.48;8.95;;;;;;;-140.66;100.00;55571.53;5138405;27;20195;-75
2023/06/16 05:12:42;;;;;;;13.32;9.20;;;;;;;-140.66;100.00;55571.53;5137832;27;20027;-74
2023/06/16 05:15:28;;;;;;;14.52;8.90;;;;;;;-140.66;100.00;55571.53;5137432;27;20106;-75
2023/06/16 05:18:14;;;;;;;20.00;9.55;;;;;;;-140.66;100.00;55571.53;5137312;27;20026;-75
2023/06/16 05:21:00;;;;;;;22.23;9.40;;;;;;;-140.66;100.00;55571.53;5137855;27;20426;-75
2023/06/16 05:23:46;;;;;;;16.23;9.48;;;;;;;-140.66;100.00;55571.53;5138021;27;20015;-75
2023/06/16 05:26:31;;;;;;;22.25;10.10;;;;;;;-140.66;100.00;55571.53;5137031;27;20027;-75
2023/06/16 05:29:17;;;;;;;22.38;9.50;;;;;;;-140.66;100.00;55571.53;5137636;27;20133;-74
2023/06/16 05:32:03;;;;;;;34.00;11.27;;;;;;;-140.66;100.00;55571.53;5138641;27;20323;-74
2023/06/16 05:34:53;;;;;;;17.02;8.95;;;;;;;-140.66;100.00;55571.53;5137638;27;20031;-74
2023/06/16 05:37:38;;;;;;;13.63;8.80;;;;;;;-140.66;100.00;55571.53;5137159;27;20031;-74
2023/06/16 05:40:24;;;;;;;20.35;8.25;;;;;;;-140.66;100.00;55571.53;5136084;27;20023;-75
2023/06/16 05:43:10;;;;;;;15.38;8.40;;;;;;;-140.66;100.00;55571.53;5136167;27;20129;-74
2023/06/16 05:45:55;;;;;;;17.88;9.13;;;;;;;-140.66;100.00;55571.53;5136970;27;20132;-74
2023/06/16 05:48:41;;;;;;;16.05;8.18;;;;;;;-140.66;100.00;55571.53;5137439;27;20023;-74
2023/06/16 05:51:27;;;;;;;15.38;8.82;;;;;;;-140.66;100.00;55571.53;5136140;27;20432;-75
2023/06/16 05:54:13;;;;;;;12.93;6.97;;;;;;;-140.66;100.00;55571.53;5136996;27;20023;-74
2023/06/16 05:57:00;;;;;;;12.68;7.22;;;;;;;-140.66;100.00;55571.53;5136972;27;20031;-73
2023/06/16 05:59:45;;;;;;;8.30;6.85;;;;;;;-140.66;100.00;55571.53;5142079;27;20110;-74
2023/06/16 06:02:31;;;;;;;13.10;6.53;;;;;;;-140.66;100.00;55571.53;5154548;27;20405;-74
2023/06/16 06:05:17;;;;;;;13.80;6.25;;;;;;;-140.66;100.00;55571.53;5144383;27;20041;-74
2023/06/16 06:08:03;;;;;;;11.82;6.68;;;;;;;-140.66;100.00;55571.53;5137179;27;20413;-74
2023/06/16 06:10:49;;;;;;;6.68;5.63;;;;;;;-140.66;100.00;55571.53;5138017;27;20051;-75
2023/06/16 06:13:35;;;;;;;7.90;5.30;;;;;;;-140.66;100.00;55571.53;5156724;27;20023;-75
2023/06/16 06:16:21;;;;;;;10.68;6.05;;;;;;;-140.66;100.00;55571.53;5149083;27;20023;-74
2023/06/16 06:19:07;;;;;;;7.82;5.75;;;;;;;-140.66;100.00;55571.53;5149531;27;20046;-74
2023/06/16 06:21:53;;;;;;;9.10;5.82;;;;;;;-140.66;100.00;55571.53;5135522;27;20394;-74
2023/06/16 06:24:39;;;;;;;10.85;5.85;;;;;;;-140.66;100.00;55571.53;5137605;27;20501;-74
2023/06/16 06:27:25;;;;;;;7.22;5.10;;;;;;;-140.66;100.00;55571.53;5123157;27;20023;-74
2023/06/16 06:30:11;;;;;;;6.38;4.90;;;;;;;-140.66;100.00;55571.53;5137004;27;20524;-75
2023/06/16 06:32:57;;;;;;;10.20;5.75;;;;;;;-140.66;100.00;55571.53;5121103;27;20063;-75
2023/06/16 06:35:43;;;;;;;9.55;5.60;;;;;;;-140.66;100.00;55571.53;5122618;27;20023;-74
2023/06/16 06:38:29;;;;;;;12.05;6.40;;;;;;;-140.66;100.00;55571.53;5136609;27;20027;-75
2023/06/16 06:41:16;;;;;;;10.35;6.03;;;;;;;-140.66;100.00;55571.53;5136571;27;20031;-73
2023/06/16 06:44:02;;;;;;;14.05;5.47;;;;;;;-140.66;100.00;55571.53;5136538;27;20501;-74
2023/06/16 06:46:48;;;;;;;7.70;5.65;;;;;;;-140.66;100.00;55571.53;5120832;27;20046;-75
2023/06/16 06:49:34;;;;;;;7.75;5.43;;;;;;;-140.66;100.00;55571.53;5135296;27;20054;-74
2023/06/16 06:52:20;;;;;;;7.03;4.93;;;;;;;-140.66;100.00;55571.53;5136664;27;20035;-74
2023/06/16 06:55:06;;;;;;;7.20;4.80;;;;;;;-140.66;100.00;55571.53;5136686;27;20433;-74
2023/06/16 06:57:55;;;;;;;11.65;5.70;;;;;;;-140.66;100.00;55571.53;5136184;27;20030;-74
2023/06/16 07:00:41;;;;;;;17.85;5.80;;;;;;;-140.66;100.00;55571.53;5141862;27;20050;-73
2023/06/16 07:03:27;;;;;;;6.93;4.82;;;;;;;-140.66;100.00;55571.53;5130737;27;20027;-74
2023/06/16 07:06:13;;;;;;;7.75;5.18;;;;;;;-140.66;100.00;55571.53;5120376;27;20485;-74
2023/06/16 07:08:58;;;;;;;7.50;4.50;;;;;;;-140.66;100.00;55571.53;5119889;27;20049;-74
2023/06/16 07:11:45;;;;;;;5.65;4.55;;;;;;;-140.66;100.00;55571.53;5135930;27;20042;-74
2023/06/16 07:14:34;;;;;;;6.40;4.18;;;;;;;-140.66;100.00;55571.53;5136248;27;20126;-74
2023/06/16 07:17:19;;;;;;;6.50;4.40;;;;;;;-140.66;100.00;55571.53;5136935;27;20525;-79
2023/06/16 07:20:06;;;;;;;4.60;3.63;;;;;;;-140.66;100.00;55571.53;5119459;27;20057;-80
2023/06/16 07:22:51;;;;;;;10.95;4.75;;;;;;;-140.66;100.00;55571.53;5135327;27;20106;-79
2023/06/16 07:25:37;;;;;;;9.02;4.50;;;;;;;-140.66;100.00;55571.53;5120440;27;20030;-79
2023/06/16 07:28:23;;;;;;;8.65;4.80;;;;;;;-140.66;100.00;55571.53;5134616;27;20038;-80
2023/06/16 07:31:09;;;;;;;7.25;4.88;;;;;;;-140.66;100.00;55571.53;5119562;27;20031;-78
2023/06/16 07:33:55;;;;;;;11.93;4.78;;;;;;;-140.66;100.00;55571.53;5135994;27;20098;-79
2023/06/16 07:36:40;;;;;;;8.63;4.53;;;;;;;-140.66;100.00;55571.53;5120763;27;20103;-79
2023/06/16 07:39:26;;;;;;;9.52;4.57;;;;;;;-140.66;100.00;55571.53;5135416;27;20031;-80
2023/06/16 07:42:13;;;;;;;8.13;4.30;;;;;;;-140.66;100.00;55571.53;5135250;27;20031;-78
2023/06/16 07:44:58;;;;;;;5.20;4.03;;;;;;;-140.66;100.00;55571.53;5119561;27;20384;-80
2023/06/16 07:47:45;;;;;;;9.18;5.25;;;;;;;-140.66;100.00;55571.53;5135238;27;20019;-79
2023/06/16 07:50:31;;;;;;;9.27;4.60;;;;;;;-140.66;100.00;55571.53;5119976;27;20055;-80
2023/06/16 07:53:17;;;;;;;4.97;3.47;;;;;;;-140.66;100.00;55571.53;5118868;27;20031;-79
2023/06/16 07:56:03;;;;;;;6.22;3.50;;;;;;;-140.66;100.00;55571.53;5134781;27;20023;-80
2023/06/16 07:58:49;;;;;;;4.75;3.67;;;;;;;-140.66;100.00;55571.53;5120135;27;20046;-79
2023/06/16 08:01:34;;;;;;;6.78;4.03;;;;;;;-140.66;100.00;55571.53;5119061;27;20118;-79
2023/06/16 08:04:20;;;;;;;7.57;3.60;;;;;;;-140.66;100.00;55571.53;5119058;27;20022;-80
2023/06/16 08:07:06;;;;;;;9.93;4.55;;;;;;;-140.66;100.00;55571.53;5119735;27;20018;-73
2023/06/16 08:09:52;;;;;;;7.20;3.80;;;;;;;-140.66;100.00;55571.53;5119426;27;20053;-75
2023/06/16 08:12:37;;;;;;;8.63;3.72;;;;;;;-140.66;100.00;55571.53;5135418;27;20058;-73
2023/06/16 08:15:23;;;;;;;5.50;3.45;;;;;;;-140.66;100.00;55571.53;5134249;27;20019;-74
2023/06/16 08:18:10;;;;;;;7.18;3.40;;;;;;;-140.66;100.00;55571.53;5134239;27;20062;-73
2023/06/16 08:20:56;;;;;;;4.97;3.30;;;;;;;-140.66;100.00;55571.53;5134256;27;20132;-73
2023/06/16 08:23:41;;;;;;;10.05;3.88;;;;;;;-140.66;100.00;55571.53;5119929;27;20023;-74
2023/06/16 08:26:28;;;;;;;4.80;2.97;;;;;;;-140.66;100.00;55571.53;5134515;28;20360;-74
2023/06/16 08:29:14;;;;;;;8.77;3.10;;;;;;;-140.66;100.00;55571.53;5133821;27;20038;-73
2023/06/16 08:32:00;;;;;;;5.07;3.00;;;;;;;-140.66;100.00;55571.53;5134485;28;20031;-74
2023/06/16 08:34:46;;;;;;;5.75;2.55;;;;;;;-140.66;100.00;55571.53;5118357;28;20027;-73
2023/06/16 08:37:32;;;;;;;11.18;3.08;;;;;;;-140.66;100.00;55571.53;5135209;28;20361;-74
2023/06/16 08:40:17;;;;;;;3.70;2.40;;;;;;;-140.66;100.00;55571.53;5119169;28;20106;-75
2023/06/16 08:43:11;;;;;;;6.10;2.40;;;;;;;-140.66;100.00;55571.53;5118523;28;20023;-74
2023/06/16 08:45:58;;;;;;;4.10;2.03;;;;;;;-140.66;100.00;55571.53;5134040;28;20019;-73
2023/06/16 08:48:45;;;;;;;4.00;2.10;;;;;;;-140.66;100.00;55571.53;5133808;28;20027;-75
2023/06/16 08:51:33;;;;;;;5.88;2.30;;;;;;;-140.66;100.00;55571.53;5135191;28;20027;-73
2023/06/16 08:54:20;;;;;;;4.13;2.50;;;;;;;-140.66;100.00;55571.53;5133399;28;20402;-73
2023/06/16 08:57:09;;;;;;;4.65;2.70;;;;;;;-140.66;100.00;55571.53;5134341;28;20100;-74
2023/06/16 09:00:00;;;;;;;4.28;2.65;;;;;;;-140.66;100.00;55571.53;5133384;28;20038;-73
2023/06/16 09:02:49;;;;;;;10.60;3.22;;;;;;;-140.66;100.00;55571.53;5133409;28;20030;-73
2023/06/16 09:05:36;;;;;;;6.22;2.42;;;;;;;-140.66;100.00;55571.53;5135134;28;20076;-74
2023/06/16 09:08:22;;;;;;;4.75;1.83;;;;;;;-140.66;100.00;55571.53;5134526;28;20096;-74
2023/06/16 09:11:08;;;;;;;6.15;2.13;;;;;;;-140.66;100.00;55571.53;5133791;28;20152;-74
2023/06/16 09:13:55;;;;;;;2.30;1.60;;;;;;;-140.66;100.00;55571.53;5133904;28;20031;-74
2023/06/16 09:16:42;;;;;;;7.60;1.95;;;;;;;-140.66;100.00;55571.53;5133293;28;20577;-74
2023/06/16 09:19:30;;;;;;;5.95;1.63;;;;;;;-140.66;100.00;55571.53;5133626;27;20388;-73
2023/06/16 09:22:21;;;;;;;5.70;1.40;;;;;;;-140.66;100.00;55571.53;5130984;27;20027;-74
2023/06/16 09:25:12;;;;;;;7.75;1.92;;;;;;;-140.66;100.00;55571.53;5133258;27;20437;-73
2023/06/16 09:27:59;;;;;;;8.48;2.00;;;;;;;-140.66;100.00;55571.53;5137338;27;20329;-74
2023/06/16 09:30:45;;;;;;;13.65;2.00;;;;;;;-140.66;100.00;55571.53;5153003;27;20072;-74
2023/06/16 09:33:30;;;;;;;8.95;2.00;;;;;;;-140.66;100.00;55571.53;5155320;27;20026;-79
2023/06/16 09:36:26;;;;;;;3.92;2.20;;;;;;;-140.66;100.00;55571.53;5155643;27;20118;-80
2023/06/16 09:39:24;;;;;;;5.97;2.20;;;;;;;-140.66;100.00;55571.53;5128347;28;20334;-73
2023/06/16 09:42:13;;;;;;;7.82;2.30;;;;;;;-140.66;100.00;55571.53;5122694;27;20034;-79
2023/06/16 09:44:59;;;;;;;6.00;2.35;;;;;;;-140.66;100.00;55571.53;5137524;27;20389;-81
2023/06/16 09:47:49;;;;;;;5.78;2.80;;;;;;;-140.66;100.00;55571.53;5122510;27;20015;-77
2023/06/16 09:50:36;;;;;;;11.63;2.60;;;;;;;-140.66;100.00;55571.53;5138266;27;20456;-73
2023/06/16 09:53:22;;;;;;;9.55;2.55;;;;;;;-140.66;100.00;55571.53;5122791;27;20418;-74
2023/06/16 09:56:08;;;;;;;11.25;2.97;;;;;;;-140.66;100.00;55571.53;5123301;27;20023;-73
2023/06/16 09:58:54;;;;;;;9.90;2.70;;;;;;;-140.66;100.00;55571.53;5137415;27;20027;-80
2023/06/16 10:01:43;;;;;;;9.40;2.63;;;;;;;-140.66;100.00;55571.53;5123203;27;20041;-80
2023/06/16 10:04:30;;;;;;;4.35;2.60;;;;;;;-140.66;100.00;55571.53;5137664;27;20046;-80
2023/06/16 10:07:16;;;;;;;9.35;3.10;;;;;;;-140.66;100.00;55571.53;5136669;27;20015;-79
2023/06/16 10:10:04;;;;;;;9.57;3.00;;;;;;;-140.66;100.00;55571.53;5117644;28;20031;-73
2023/06/16 10:12:51;;;;;;;7.40;3.40;;;;;;;-140.66;100.00;55571.53;5101442;28;20027;-74
2023/06/16 10:15:40;;;;;;;8.23;3.28;;;;;;;-140.66;100.00;55571.53;5101215;28;20039;-73
2023/06/16 10:18:26;;;;;;;4.97;3.22;;;;;;;-140.66;100.00;55571.53;5117170;28;20023;-74
2023/06/16 10:21:12;;;;;;;8.15;3.50;;;;;;;-140.66;100.00;55571.53;5103521;28;20040;-73
2023/06/16 10:23:59;;;;;;;8.27;3.10;;;;;;;-140.66;100.00;55571.53;5126608;28;20106;-79
2023/06/16 10:26:46;;;;;;;11.05;3.50;;;;;;;-140.66;100.00;55571.53;5088755;28;20023;-79
2023/06/16 10:29:32;;;;;;;7.05;3.60;;;;;;;-140.66;100.00;55571.53;5102600;28;20460;-79
2023/06/16 10:32:18;;;;;;;6.60;3.40;;;;;;;-140.66;100.00;55571.53;5119956;28;20441;-78
2023/06/16 10:35:07;;;;;;;5.07;3.30;;;;;;;-140.66;100.00;55571.53;5116158;28;20035;-73
2023/06/16 10:37:55;;;;;;;5.38;3.30;;;;;;;-140.66;100.00;55571.53;5116059;28;20163;-74
2023/06/16 10:40:42;;;;;;;11.48;3.35;;;;;;;-140.66;100.00;55571.53;5101391;28;20027;-74
2023/06/16 10:43:27;;;;;;;5.68;3.40;;;;;;;-140.66;100.00;55571.53;5116174;28;20110;-74
2023/06/16 10:46:15;;;;;;;7.72;3.45;;;;;;;-140.66;100.00;55571.53;5116090;28;20349;-74
2023/06/16 10:49:09;;;;;;;6.45;3.28;;;;;;;-140.66;100.00;55571.53;5100668;28;20035;-73
2023/06/16 10:51:58;;;;;;;5.43;3.15;;;;;;;-140.66;100.00;55571.53;5101352;28;20102;-79
2023/06/16 10:54:48;;;;;;;4.22;3.30;;;;;;;-140.66;100.00;55571.53;5100511;27;20102;-72
2023/06/16 10:57:36;;;;;;;6.95;3.10;;;;;;;-140.66;100.00;55571.53;5133527;27;20023;-73
2023/06/16 11:00:25;;;;;;;10.48;3.33;;;;;;;-140.66;100.00;55571.53;5114588;28;20445;-74
2023/06/16 11:03:11;;;;;;;8.35;3.35;;;;;;;-140.66;100.00;55571.53;5133707;27;20441;-74
2023/06/16 11:06:02;;;;;;;10.93;3.50;;;;;;;-140.66;100.00;55571.53;5136080;27;20023;-74
2023/06/16 11:08:48;;;;;;;8.85;3.13;;;;;;;-140.66;100.00;55571.53;5136087;27;20037;-74
2023/06/16 11:11:34;;;;;;;8.02;3.53;;;;;;;-140.66;100.00;55571.53;5135496;27;20098;-73
2023/06/16 11:14:20;;;;;;;9.68;3.10;;;;;;;-140.66;100.00;55571.53;5136090;27;20360;-72
2023/06/16 11:17:06;;;;;;;7.43;3.30;;;;;;;-140.66;100.00;55571.53;5134986;27;20078;-73
2023/06/16 11:19:55;;;;;;;15.05;3.80;;;;;;;-140.66;100.00;55571.53;5138093;27;20058;-75
2023/06/16 11:22:45;;;;;;;13.68;3.45;;;;;;;-140.66;100.00;55571.53;5147576;27;20019;-74
2023/06/16 11:25:30;;;;;;;9.68;3.70;;;;;;;-140.66;100.00;55571.53;5136468;27;20026;-81
2023/06/16 11:28:21;;;;;;;6.57;3.67;;;;;;;-140.66;100.00;55571.53;5139373;27;20028;-78
2023/06/16 11:31:12;;;;;;;9.90;3.72;;;;;;;-140.66;100.00;55571.53;5123404;27;20051;-80
2023/06/16 11:33:59;;;;;;;6.00;3.25;;;;;;;-140.66;100.00;55571.53;5124103;27;20124;-81
2023/06/16 11:36:47;;;;;;;7.15;3.50;;;;;;;-140.66;100.00;55571.53;5136469;27;20369;-77
2023/06/16 11:39:43;;;;;;;11.23;2.88;;;;;;;-140.66;100.00;55571.53;5136520;27;20019;-79
2023/06/16 11:42:29;;;;;;;4.20;3.00;;;;;;;-140.66;100.00;55571.53;5121250;27;20519;-79
2023/06/16 11:45:15;;;;;;;10.05;4.00;;;;;;;-140.66;100.00;55571.53;5121136;27;20118;-79
2023/06/16 11:48:03;;;;;;;10.60;4.15;;;;;;;-140.66;100.00;55571.53;5135744;27;20037;-80
2023/06/16 11:50:50;;;;;;;11.25;3.72;;;;;;;-140.66;100.00;55571.53;5136660;27;20038;-81
2023/06/16 11:53:36;;;;;;;7.20;3.90;;;;;;;-140.66;100.00;55571.53;5134943;27;20038;-74
2023/06/16 11:56:24;;;;;;;4.70;3.50;;;;;;;-140.66;100.00;55571.53;5119720;27;20019;-79
2023/06/16 11:59:13;;;;;;;8.07;3.45;;;;;;;-140.66;100.00;55571.53;5135411;27;20080;-74
2023/06/16 12:02:03;;;;;;;5.97;3.50;;;;;;;-140.66;100.00;55571.53;5119967;27;20023;-74
2023/06/16 12:04:49;;;;;;;8.70;3.70;;;;;;;-140.66;100.00;55571.53;5132940;27;20417;-73
2023/06/16 12:07:35;;;;;;;6.38;3.42;;;;;;;-140.66;100.00;55571.53;5135438;27;20322;-73
2023/06/16 12:10:23;;;;;;;6.90;3.72;;;;;;;-140.66;100.00;55571.53;5135241;27;20041;-78
2023/06/16 12:13:10;;;;;;;24.77;3.47;;;;;;;-140.66;100.00;55571.53;5136772;27;20055;-81
2023/06/16 12:15:57;;;;;;;8.85;3.53;;;;;;;-140.66;100.00;55571.53;5136323;27;20039;-80
2023/06/16 12:18:43;;;;;;;7.28;3.35;;;;;;;-140.66;100.00;55571.53;5135931;27;20023;-82
2023/06/16 12:21:29;;;;;;;6.25;2.95;;;;;;;-140.66;100.00;55571.53;5135748;27;20033;-80
2023/06/16 12:24:19;;;;;;;10.23;3.83;;;;;;;-140.66;100.00;55571.53;5136249;27;20486;-81
2023/06/16 12:27:05;;;;;;;8.55;3.92;;;;;;;-140.66;100.00;55571.53;5135813;27;20034;-79
2023/06/16 12:30:00;;;;;;;11.80;4.28;;;;;;;-140.66;100.00;55571.53;5121027;28;20119;-79
2023/06/16 12:32:46;;;;;;;7.55;3.80;;;;;;;-140.66;100.00;55571.53;5136214;28;20027;-81
2023/06/16 12:35:32;;;;;;;15.48;3.97;;;;;;;-140.66;100.00;55571.53;5122357;28;20027;-81